createdAt,value
2022-08-26T00:01:08.987Z,12.05
2022-08-26T00:03:54.987Z,12.50
2022-08-26T00:06:42.638Z,11.82
2022-08-26T00:09:33.137Z,10.95
2022-08-26T00:12:27.854Z,12.45
2022-08-26T00:15:23.285Z,12.20
2022-08-26T00:18:22.049Z,11.85
2022-08-26T00:21:09.968Z,12.50
2022-08-26T00:23:56.121Z,11.70
2022-08-26T00:26:42.233Z,12.23
2022-08-26T00:29:29.137Z,11.68
2022-08-26T00:32:17.623Z,12.93
2022-08-26T00:35:04.791Z,12.15
2022-08-26T00:37:54.714Z,11.88
2022-08-26T00:40:52.221Z,11.95
2022-08-26T00:43:47.789Z,11.93
2022-08-26T00:46:39.930Z,11.85
2022-08-26T00:49:41.507Z,12.18
2022-08-26T00:52:28.770Z,12.35
2022-08-26T00:55:37.757Z,12.15
2022-08-26T00:58:25.686Z,11.20
2022-08-26T01:01:12.065Z,12.30
2022-08-26T01:03:59.991Z,11.80
2022-08-26T01:06:46.868Z,12.35
2022-08-26T01:09:33.905Z,11.88
2022-08-26T01:12:22.107Z,11.52
2022-08-26T01:15:11.239Z,12.52
2022-08-26T01:17:59.015Z,12.88
2022-08-26T01:20:51.526Z,13.05
2022-08-26T01:23:45.208Z,12.73
2022-08-26T01:26:34.865Z,13.10
2022-08-26T01:29:22.161Z,12.70
2022-08-26T01:32:11.012Z,12.60
2022-08-26T01:34:57.309Z,11.40
2022-08-26T01:37:46.529Z,12.23
2022-08-26T01:40:35.414Z,12.20
2022-08-26T01:43:24.314Z,12.30
2022-08-26T01:46:11.095Z,12.52
2022-08-26T01:48:59.400Z,12.13
2022-08-26T01:51:47.219Z,12.05
2022-08-26T01:54:34.258Z,12.52
2022-08-26T01:57:21.356Z,12.35
2022-08-26T02:00:11.029Z,12.57
2022-08-26T02:03:18.171Z,11.98
2022-08-26T02:06:09.373Z,12.18
2022-08-26T02:08:58.437Z,12.45
2022-08-26T02:11:45.315Z,12.55
2022-08-26T02:14:36.207Z,12.30
2022-08-26T02:17:35.699Z,12.50
2022-08-26T02:20:22.819Z,12.25
2022-08-26T02:23:09.508Z,12.38
2022-08-26T02:26:09.939Z,12.00
2022-08-26T02:29:02.666Z,12.30
2022-08-26T02:31:48.914Z,12.60
2022-08-26T02:34:35.401Z,12.45
2022-08-26T02:37:23.126Z,12.20
2022-08-26T02:40:11.945Z,11.95
2022-08-26T02:42:58.180Z,12.45
2022-08-26T02:45:44.496Z,13.57
2022-08-26T02:48:30.879Z,12.43
2022-08-26T02:51:17.094Z,13.10
2022-08-26T02:54:03.631Z,12.50
2022-08-26T02:56:51.455Z,12.43
2022-08-26T02:59:39.433Z,12.50
2022-08-26T03:02:25.116Z,12.00
2022-08-26T03:05:12.469Z,12.77
2022-08-26T03:07:58.365Z,12.48
2022-08-26T03:10:48.131Z,12.98
2022-08-26T03:13:36.342Z,13.10
2022-08-26T03:16:22.597Z,13.77
2022-08-26T03:19:09.850Z,12.85
2022-08-26T03:22:08.120Z,13.23
2022-08-26T03:24:54.274Z,12.85
2022-08-26T03:27:40.507Z,12.82
2022-08-26T03:30:49.086Z,13.27
2022-08-26T03:33:35.066Z,13.73
2022-08-26T03:36:22.250Z,13.55
2022-08-26T03:39:08.512Z,13.73
2022-08-26T03:41:55.783Z,13.52
2022-08-26T03:44:46.026Z,13.18
2022-08-26T03:47:39.108Z,13.77
2022-08-26T03:50:25.893Z,14.75
2022-08-26T03:53:13.423Z,13.93
2022-08-26T03:55:59.701Z,14.85
2022-08-26T03:58:45.950Z,13.35
2022-08-26T04:01:32.086Z,13.27
2022-08-26T04:04:18.718Z,13.07
2022-08-26T04:07:09.310Z,13.57
2022-08-26T04:09:58.557Z,13.75
2022-08-26T04:12:45.017Z,13.35
2022-08-26T04:15:31.131Z,13.45
2022-08-26T04:18:17.270Z,13.38
2022-08-26T04:21:07.763Z,14.00
2022-08-26T04:23:54.458Z,13.70
2022-08-26T04:26:42.852Z,13.70
2022-08-26T04:29:29.802Z,13.57
2022-08-26T04:32:16.434Z,14.07
2022-08-26T04:35:02.929Z,12.43
2022-08-26T04:37:50.903Z,15.00
2022-08-26T04:40:36.997Z,13.43
2022-08-26T04:43:30.586Z,13.25
2022-08-26T04:46:18.529Z,13.55
2022-08-26T04:49:08.566Z,13.73
2022-08-26T04:51:55.052Z,13.63
2022-08-26T04:54:42.192Z,13.50
2022-08-26T04:57:28.066Z,14.45
2022-08-26T05:00:18.813Z,13.70
2022-08-26T05:03:05.484Z,14.35
2022-08-26T05:06:07.214Z,14.30
2022-08-26T05:08:55.543Z,13.38
2022-08-26T05:11:45.737Z,13.55
2022-08-26T05:14:46.421Z,14.13
2022-08-26T05:17:33.499Z,13.68
2022-08-26T05:20:25.751Z,13.82
2022-08-26T05:23:32.166Z,13.13
2022-08-26T05:26:30.836Z,14.27
2022-08-26T05:29:54.457Z,14.18
2022-08-26T05:32:40.336Z,13.73
2022-08-26T05:35:34.165Z,13.20
2022-08-26T05:38:21.793Z,13.30
2022-08-26T05:45:28.535Z,12.98
2022-08-26T05:48:16.966Z,13.68
2022-08-26T05:51:15.766Z,14.88
2022-08-26T05:54:02.769Z,13.82
2022-08-26T05:56:51.377Z,13.52
2022-08-26T05:59:37.284Z,15.30
2022-08-26T06:02:25.021Z,13.48
2022-08-26T06:05:11.714Z,14.73
2022-08-26T06:08:14.196Z,13.90
2022-08-26T06:11:02.764Z,13.68
2022-08-26T06:13:48.984Z,13.35
2022-08-26T06:16:40.957Z,13.88
2022-08-26T06:19:32.721Z,13.27
2022-08-26T06:22:55.543Z,11.93
2022-08-26T06:25:42.092Z,12.60
2022-08-26T06:28:29.612Z,12.77
2022-08-26T06:31:16.109Z,14.40
2022-08-26T06:34:06.165Z,14.13
2022-08-26T06:36:55.855Z,12.87
2022-08-26T06:39:48.972Z,13.80
2022-08-26T06:42:38.051Z,14.10
2022-08-26T06:45:25.223Z,14.43
2022-08-26T06:48:13.406Z,13.43
2022-08-26T06:51:10.745Z,14.23
2022-08-26T06:54:00.416Z,13.73
2022-08-26T08:09:37.674Z,14.75
2022-08-26T08:12:26.466Z,14.70
2022-08-26T08:15:15.483Z,14.48
2022-08-26T08:18:02.085Z,13.65
2022-08-26T08:20:59.201Z,14.65
2022-08-26T08:24:00.682Z,13.18
2022-08-26T08:26:47.035Z,15.07
2022-08-26T08:29:33.108Z,14.82
2022-08-26T08:32:22.335Z,13.60
2022-08-26T08:35:10.933Z,14.65
2022-08-26T08:37:57.527Z,14.20
2022-08-26T08:40:45.630Z,13.32
2022-08-26T08:43:42.452Z,13.48
2022-08-26T08:46:30.310Z,13.30
2022-08-26T08:49:17.630Z,13.43
2022-08-26T08:52:14.406Z,13.38
2022-08-26T08:55:01.543Z,12.75
2022-08-26T08:58:08.077Z,12.65
2022-08-26T09:01:00.837Z,12.30
2022-08-26T09:04:44.518Z,12.27
2022-08-26T09:07:41.475Z,12.07
2022-08-26T09:10:33.794Z,12.82
2022-08-26T09:13:38.504Z,11.20
2022-08-26T09:16:46.654Z,10.45
2022-08-26T09:19:50.021Z,11.20
2022-08-26T09:22:49.719Z,11.60
2022-08-26T09:25:52.072Z,10.20
2022-08-26T09:28:56.874Z,10.73
2022-08-26T09:31:47.765Z,10.65
2022-08-26T09:34:34.293Z,26.52
2022-08-26T09:37:35.280Z,13.82
2022-08-26T09:40:34.923Z,10.73
2022-08-26T09:43:22.387Z,11.40
2022-08-26T09:46:36.161Z,10.00
2022-08-26T09:49:36.128Z,9.63
2022-08-26T09:52:24.734Z,9.10
2022-08-26T09:55:15.622Z,9.52
2022-08-26T09:58:07.780Z,8.80
2022-08-26T10:00:57.876Z,8.70
2022-08-26T10:03:47.095Z,8.07
2022-08-26T10:07:03.896Z,8.20
2022-08-26T10:09:51.680Z,7.13
2022-08-26T10:12:43.442Z,9.02
2022-08-26T10:15:33.219Z,11.55
2022-08-26T10:18:27.206Z,8.32
2022-08-26T10:21:43.098Z,7.95
2022-08-26T10:24:41.239Z,7.97
2022-08-26T10:28:01.688Z,7.57
2022-08-26T10:30:53.033Z,8.40
2022-08-26T10:33:39.344Z,7.90
2022-08-26T10:37:05.465Z,8.32
2022-08-26T10:40:07.700Z,7.95
2022-08-26T10:43:16.876Z,7.53
2022-08-26T10:46:14.551Z,7.30
2022-08-26T10:49:17.963Z,7.03
2022-08-26T10:52:17.958Z,7.40
2022-08-26T10:55:25.353Z,7.30
2022-08-26T10:58:26.236Z,8.48
2022-08-26T11:01:40.662Z,7.65
2022-08-26T11:04:48.335Z,7.32
2022-08-26T11:07:43.360Z,7.38
2022-08-26T11:10:38.644Z,7.75
2022-08-26T11:14:04.488Z,6.95
2022-08-26T11:16:52.938Z,8.05
2022-08-26T11:19:59.575Z,8.70
2022-08-26T11:22:48.037Z,11.43
2022-08-26T11:25:34.426Z,10.52
2022-08-26T11:28:46.029Z,9.73
2022-08-26T11:31:39.083Z,7.03
2022-08-26T11:34:56.268Z,7.47
2022-08-26T11:37:48.441Z,6.47
2022-08-26T11:40:38.714Z,6.78
2022-08-26T11:43:26.694Z,5.60
2022-08-26T11:46:28.348Z,5.97
2022-08-26T11:49:17.541Z,5.82
2022-08-26T11:52:22.276Z,8.38
2022-08-26T11:55:12.103Z,8.82
2022-08-26T11:58:01.012Z,5.30
2022-08-26T12:00:51.086Z,6.30
2022-08-26T12:03:41.917Z,7.30
2022-08-26T12:06:38.978Z,6.13
2022-08-26T12:09:35.125Z,5.78
2022-08-26T12:12:34.761Z,8.80
2022-08-26T12:15:22.812Z,7.82
2022-08-26T12:18:29.407Z,6.68
2022-08-26T12:21:24.299Z,7.60
2022-08-26T12:24:18.045Z,8.55
2022-08-26T12:27:17.074Z,7.78
2022-08-26T12:30:26.949Z,6.78
2022-08-26T12:33:22.269Z,7.18
2022-08-26T12:36:09.462Z,8.88
2022-08-26T12:38:58.272Z,8.15
2022-08-26T12:41:53.034Z,8.45
2022-08-26T12:44:53.955Z,9.50
2022-08-26T12:47:44.196Z,12.15
2022-08-26T12:50:33.706Z,12.10
2022-08-26T12:53:30.981Z,13.82
2022-08-26T12:56:40.499Z,13.25
2022-08-26T12:59:26.777Z,16.92
2022-08-26T13:02:35.709Z,15.50
2022-08-26T13:05:33.263Z,7.03
2022-08-26T13:08:27.525Z,4.50
2022-08-26T13:11:35.388Z,4.78
2022-08-26T13:14:24.410Z,4.82
2022-08-26T13:17:10.469Z,4.30
2022-08-26T13:20:01.273Z,3.50
2022-08-26T13:22:58.691Z,5.85
2022-08-26T13:25:45.387Z,5.60
2022-08-26T13:28:31.612Z,10.88
2022-08-26T13:31:17.616Z,7.10
2022-08-26T13:34:05.136Z,7.07
2022-08-26T13:36:54.182Z,6.70
2022-08-26T13:39:41.915Z,6.93
2022-08-26T13:42:28.335Z,7.70
2022-08-26T13:45:14.490Z,7.47
2022-08-26T13:48:00.666Z,6.80
2022-08-26T13:50:47.961Z,7.72
2022-08-26T13:53:34.607Z,8.35
2022-08-26T15:19:52.468Z,6.00
2022-08-26T15:22:39.904Z,5.10
2022-08-26T15:25:25.918Z,5.38
2022-08-26T15:28:14.962Z,5.05
2022-08-26T15:31:07.326Z,6.22
2022-08-26T15:33:59.574Z,5.50
2022-08-26T15:39:42.465Z,4.97
2022-08-26T15:42:42.782Z,5.18
2022-08-26T15:45:34.503Z,5.30
2022-08-26T15:48:21.542Z,4.40
2022-08-26T15:51:08.481Z,4.93
2022-08-26T15:53:56.379Z,4.82
2022-08-26T15:56:43.480Z,4.60
2022-08-26T15:59:32.851Z,5.40
2022-08-26T16:02:19.040Z,4.45
2022-08-26T16:05:05.123Z,5.28
2022-08-26T16:07:51.150Z,4.93
2022-08-26T16:10:50.268Z,4.88
2022-08-26T16:13:39.891Z,4.70
2022-08-26T16:16:26.609Z,4.60
2022-08-26T16:19:13.148Z,5.32
2022-08-26T16:21:59.131Z,5.18
2022-08-26T16:24:45.316Z,5.45
2022-08-26T16:27:32.602Z,4.93
2022-08-26T16:30:19.777Z,5.63
2022-08-26T16:33:06.807Z,6.38
2022-08-26T16:35:54.326Z,5.70
2022-08-26T16:38:41.256Z,6.10
2022-08-26T16:41:31.924Z,6.88
2022-08-26T16:44:18.128Z,27.58
2022-08-26T16:47:04.347Z,72.75
2022-08-26T16:49:50.823Z,53.65
2022-08-26T16:52:40.261Z,22.38
2022-08-26T16:55:26.616Z,14.02
2022-08-26T16:58:12.493Z,26.67
2022-08-26T17:00:58.238Z,13.18
2022-08-26T17:03:44.320Z,8.65
2022-08-26T17:06:30.607Z,7.25
2022-08-26T17:09:16.756Z,5.55
2022-08-26T17:12:03.201Z,6.13
2022-08-26T17:14:49.239Z,4.75
2022-08-26T17:17:35.988Z,5.70
2022-08-26T17:20:23.380Z,5.47
2022-08-26T17:23:09.514Z,6.03
2022-08-26T17:25:55.383Z,5.07
2022-08-26T17:28:41.381Z,5.72
2022-08-26T17:31:27.544Z,6.43
2022-08-26T17:34:13.357Z,6.38
2022-08-26T17:36:59.592Z,7.15
2022-08-26T17:39:45.421Z,6.10
2022-08-26T17:42:31.710Z,6.65
2022-08-26T17:48:04.901Z,7.03
2022-08-26T17:50:50.972Z,6.80
2022-08-26T17:53:37.410Z,6.65
2022-08-26T17:56:29.886Z,7.00
2022-08-26T17:59:18.143Z,7.55
2022-08-26T18:02:04.073Z,7.68
2022-08-26T18:04:50.268Z,6.82
2022-08-26T18:07:43.863Z,6.22
2022-08-26T18:10:31.455Z,7.18
2022-08-26T18:13:17.830Z,6.40
2022-08-26T18:16:05.983Z,8.40
2022-08-26T18:18:53.383Z,7.68
2022-08-26T18:21:39.733Z,7.78
2022-08-26T18:24:26.044Z,7.65
2022-08-26T18:27:12.184Z,10.70
2022-08-26T18:29:58.288Z,9.25
2022-08-26T18:32:44.787Z,7.22
2022-08-26T18:35:30.778Z,7.97
2022-08-26T18:38:17.383Z,7.45
2022-08-26T18:41:04.539Z,7.60
2022-08-26T18:43:52.858Z,8.35
2022-08-26T18:46:39.153Z,7.80
2022-08-26T18:49:25.038Z,7.18
2022-08-26T18:52:10.972Z,8.15
2022-08-26T18:54:57.357Z,7.57
2022-08-26T18:57:43.301Z,8.32
2022-08-26T19:00:31.338Z,9.32
2022-08-26T19:03:19.090Z,7.03
2022-08-26T19:06:05.549Z,7.75
2022-08-26T19:08:51.747Z,7.25
2022-08-26T19:11:42.331Z,7.50
2022-08-26T19:14:29.408Z,7.13
2022-08-26T19:17:15.611Z,7.30
2022-08-26T19:20:01.647Z,7.18
2022-08-26T19:22:47.840Z,7.63
2022-08-26T19:25:33.784Z,6.80
2022-08-26T19:28:21.513Z,9.07
2022-08-26T19:31:11.076Z,9.23
2022-08-26T19:33:58.186Z,7.47
2022-08-26T19:36:46.701Z,7.45
2022-08-26T19:39:32.729Z,6.70
2022-08-26T19:42:18.557Z,7.88
2022-08-26T19:45:07.741Z,8.07
2022-08-26T19:47:59.284Z,7.07
2022-08-26T19:50:46.130Z,7.05
2022-08-26T19:53:32.166Z,8.85
2022-08-26T19:56:18.926Z,7.63
2022-08-26T19:59:05.008Z,6.85
2022-08-26T20:02:01.462Z,7.00
2022-08-26T20:04:47.714Z,6.85
2022-08-26T20:07:33.985Z,5.90
2022-08-26T20:10:22.827Z,6.70
2022-08-26T20:13:08.803Z,7.10
2022-08-26T20:15:54.853Z,7.63
2022-08-26T20:19:00.799Z,5.97
2022-08-26T20:21:46.951Z,7.32
2022-08-26T20:24:33.394Z,7.30
2022-08-26T20:27:19.793Z,6.05
2022-08-26T20:30:07.778Z,6.15
2022-08-26T20:32:53.916Z,6.70
2022-08-26T20:35:52.252Z,7.03
2022-08-26T20:38:42.514Z,7.05
2022-08-26T20:41:28.670Z,5.47
2022-08-26T20:44:14.667Z,6.35
2022-08-26T20:47:00.928Z,6.07
2022-08-26T20:49:47.284Z,7.03
2022-08-26T20:52:38.238Z,6.07
2022-08-26T20:55:25.828Z,6.35
2022-08-26T20:58:12.029Z,5.70
2022-08-26T21:00:58.331Z,6.30
2022-08-26T21:03:44.482Z,6.65
2022-08-26T21:06:31.045Z,6.70
2022-08-26T21:09:18.545Z,7.28
2022-08-26T21:12:04.746Z,6.45
2022-08-26T21:14:50.517Z,7.35
2022-08-26T21:17:37.581Z,5.90
2022-08-26T21:20:24.150Z,6.20
2022-08-26T21:23:09.892Z,5.97
2022-08-26T21:25:56.270Z,6.07
2022-08-26T21:28:44.199Z,7.28
2022-08-26T21:31:32.062Z,6.28
2022-08-26T21:34:19.468Z,7.07
2022-08-26T21:37:06.010Z,6.95
2022-08-26T21:40:35.327Z,6.28
2022-08-26T21:43:34.747Z,6.05
2022-08-26T21:46:41.314Z,5.40
2022-08-26T21:49:27.390Z,5.43
2022-08-26T21:52:13.343Z,5.90
2022-08-26T21:55:00.889Z,6.50
2022-08-26T21:57:46.847Z,6.80
2022-08-26T22:00:32.606Z,5.80
2022-08-26T22:03:18.461Z,5.80
2022-08-26T22:06:04.637Z,5.78
2022-08-26T22:08:53.231Z,5.75
2022-08-26T22:11:39.261Z,5.88
2022-08-26T22:14:30.699Z,5.60
2022-08-26T22:17:17.160Z,5.80
2022-08-26T22:20:03.811Z,6.13
2022-08-26T22:22:49.819Z,6.00
2022-08-26T22:25:38.891Z,5.80
2022-08-26T22:28:25.309Z,7.15
2022-08-26T22:31:12.659Z,7.03
2022-08-26T22:33:59.367Z,6.40
2022-08-26T22:36:47.536Z,6.18
2022-08-26T22:39:34.218Z,5.60
2022-08-26T22:42:20.104Z,5.55
2022-08-26T22:45:07.113Z,5.82
2022-08-26T22:47:53.234Z,6.18
2022-08-26T22:50:38.956Z,6.00
2022-08-26T22:53:24.737Z,6.05
2022-08-26T22:56:12.232Z,5.63
2022-08-26T22:58:58.025Z,5.30
2022-08-26T23:01:44.809Z,6.10
2022-08-26T23:04:30.874Z,5.78
2022-08-26T23:07:19.000Z,5.10
2022-08-26T23:10:07.554Z,5.22
2022-08-26T23:12:53.542Z,5.65
2022-08-26T23:15:39.918Z,5.22
2022-08-26T23:18:25.772Z,5.72
2022-08-26T23:21:11.973Z,5.63
2022-08-26T23:23:57.830Z,5.00
2022-08-26T23:26:44.439Z,5.07
2022-08-26T23:29:30.581Z,5.55
2022-08-26T23:32:16.606Z,5.57
2022-08-26T23:35:02.419Z,5.70
2022-08-26T23:37:57.873Z,5.97
2022-08-26T23:40:45.271Z,5.70
2022-08-26T23:43:31.195Z,5.45
2022-08-26T23:46:17.657Z,5.38
2022-08-26T23:49:06.092Z,5.13
2022-08-26T23:52:16.682Z,5.40
2022-08-26T23:55:02.700Z,5.38
2022-08-26T23:57:48.386Z,5.22
